Weather Models
Both GFS & NAM
00z 06z 12z 18z
24hr Precip
00z 06z 12z 18z
36hr Simulated radar
00z 06z 12z 18z
SKEWT Soundings
00z 12z
Current Conditions (Updated 6:34pm on 6/15/21)
Temperature
 81°
-1.53
91°  
67°  
0
10
20
30
40
50
60
70
80
90
100
Dew Point
51°
63°  
49°  
-20
-10
0
10
20
30
40
50
60
70
80
Heat Index
80°
90°  
71°  
30
40
50
60
70
80
90
100
110
120
130
Heat Index
Humidity
35%
83% 
27% 
0
10
20
30
40
50
60
70
80
90
100
Barometer
29.78
   Steady
29.84  
29.75  
28.00
28.30
28.60
28.90
29.20
29.50
29.80
30.10
30.40
30.70
31.00
Temperature
Dew Point
Humidity
Pressure
Wind
8mph
  N
Daily Rain
.00
.05
.10
.15
.20
.25
.30
.35
.40
.45
.50
Rain Today
 0.30" 
Month Rain
0.00
0.50
1.00
1.50
2.00
2.50
3.00
3.50
4.00
4.50
5.00
Month Rain
 3.21" 
Year Rain
0.00
1.00
2.00
3.00
4.00
5.00
6.00
7.00
8.00
9.00
10.00
Year Rain
 6.15" 
Sun & Moon Data
Sunrise 5:31am
Sunset 8:31pm
Moonrise 10:07am
Moonset 12:04am
Moon % 26%
Other Rain Data
Past Hour 0.00 Past 24 Hours 1.19
Past 3 Hours 0.00 Past 7 Days 1.37
Past 6 Hours 0.00
Cloud Height
7555


7 Day Forecast
NWS Forecast for Philadelphia PA
National Weather Service Forecast for: Philadelphia PA
Issued by: National Weather Service Philadelphia, PA
Updated: 4:32 pm EDT Jun 15, 2021

Philadelphia PA.
 
Tonight

Tonight: A slight chance of showers before 7pm.  Mostly clear, with a low around 61. Northwest wind 5 to 10 mph.  Chance of precipitation is 20%.
Slight Chance
Showers then
Mostly Clear
Wednesday

Wednesday: Sunny, with a high near 78. Northwest wind 5 to 10 mph.
Sunny

Wednesday
Night
Wednesday Night: Mostly clear, with a low around 56. North wind around 5 mph.
Mostly Clear

Thursday

Thursday: Sunny, with a high near 79. Northwest wind 5 to 10 mph.
Sunny

Thursday
Night
Thursday Night: Clear, with a low around 59. West wind around 5 mph becoming calm  in the evening.
Clear

Friday

Friday: Sunny, with a high near 85.
Sunny

Friday
Night
Friday Night: A chance of showers after 2am.  Mostly cloudy, with a low around 68. Chance of precipitation is 30%.
Mostly Cloudy
then Chance
Showers
Saturday

Saturday: A chance of showers before 8am, then a chance of showers and thunderstorms after 2pm.  Mostly sunny, with a high near 89. Chance of precipitation is 40%.
Chance
Showers then
Chance
T-storms
Saturday
Night
Saturday Night: A chance of showers and thunderstorms before 2am.  Partly cloudy, with a low around 66. Chance of precipitation is 30%.
Chance
T-storms

Lo 61 °F Hi 78 °F Lo 56 °F Hi 79 °F Lo 59 °F Hi 85 °F Lo 68 °F Hi 89 °F Lo 66 °F

 

Tonight
 
A slight chance of showers before 7pm. Mostly clear, with a low around 61. Northwest wind 5 to 10 mph. Chance of precipitation is 20%.
Wednesday
 
Sunny, with a high near 78. Northwest wind 5 to 10 mph.
Wednesday Night
 
Mostly clear, with a low around 56. North wind around 5 mph.
Thursday
 
Sunny, with a high near 79. Northwest wind 5 to 10 mph.
Thursday Night
 
Clear, with a low around 59. West wind around 5 mph becoming calm in the evening.
Friday
 
Sunny, with a high near 85.
Friday Night
 
A chance of showers after 2am. Mostly cloudy, with a low around 68. Chance of precipitation is 30%.
Saturday
 
A chance of showers before 8am, then a chance of showers and thunderstorms after 2pm. Mostly sunny, with a high near 89. Chance of precipitation is 40%.
Saturday Night
 
A chance of showers and thunderstorms before 2am. Partly cloudy, with a low around 66. Chance of precipitation is 30%.
Sunday
 
Sunny, with a high near 86.
Sunday Night
 
Partly cloudy, with a low around 67.
Monday
 
A chance of showers and thunderstorms. Partly sunny, with a high near 87. Chance of precipitation is 30%.
Monday Night
 
A chance of showers and thunderstorms. Mostly cloudy, with a low around 70. Chance of precipitation is 40%.
Tuesday
 
A chance of showers and thunderstorms. Mostly sunny, with a high near 84. Chance of precipitation is 40%.

 

Forecast from NOAA-NWS for Philadelphia PA.

Current Front Map
Current Radar
Area Weather Current Conditions
Nearby METAR Reports

KPHL - Philadelphia, Pennsylvania
Updated: Tue, 15-Jun-2021 5:54pm EDT
Partly Cloudy
Partly Cloudy
 Wind from NW
Wind: NW 12 mph , 19 km/h, Gust: 23 mph , 37 km/h
Temperature: 81°F , 27°C
Dew Point: 54°F , 12°C
Humidity: 39%
Barometer: 29.77 inHg , 1008.1 hPa
Clouds: Partly Cloudy
Visibility: 10 miles , 16 km
Cloud details: Partly Cloudy 6000 ft
Partly Cloudy 9000 ft
2021/06/15 21:54 KPHL 152154Z 32010G20KT 10SM SCT060 SCT090 27/12 A2977 RMK AO2 SLP079 T02670122 $
KMPO - Mt. Pocono, Pennsylvania
Updated: Tue, 15-Jun-2021 5:53pm EDT
Overcast
Overcast
 Wind from WNW
Wind: WNW 12 mph , 19 km/h, Gust: 21 mph , 33 km/h
Temperature: 63°F , 17°C
Dew Point: 57°F , 14°C
Humidity: 83%
Barometer: 29.82 inHg , 1009.8 hPa
Clouds: Overcast
Visibility: 10 miles , 16 km
Cloud details: Partly Cloudy 1700 ft
Overcast 6000 ft
2021/06/15 21:53 KMPO 152153Z AUTO 29010G18KT 10SM SCT017 OVC060 17/14 A2982 RMK AO2 RAB07E25 SLP096 T01670139 PNO $
 
KACY - Atlantic City, New Jersey
Updated: Tue, 15-Jun-2021 5:54pm EDT
Clear
Clear
 Wind from NW
Wind: NW 16 mph , 26 km/h
Temperature: 79°F , 26°C
Dew Point: 55°F , 13°C
Humidity: 45%
Barometer: 29.74 inHg , 1007.1 hPa
Clouds: Clear
Visibility: 10 miles , 16 km
2021/06/15 21:54 KACY 152154Z 31014KT 10SM CLR 26/13 A2974 RMK AO2 SLP069 T02610133
KMIV - Millville, New Jersey
Updated: Tue, 15-Jun-2021 5:54pm EDT
Clear
Clear
 Wind from WNW
Wind: WNW 15 mph , 24 km/h, Gust: 21 mph , 33 km/h
Temperature: 79°F , 26°C
Dew Point: 55°F , 13°C
Humidity: 45%
Barometer: 29.76 inHg , 1007.8 hPa
Clouds: Clear
Visibility: 10 miles , 16 km
2021/06/15 21:54 KMIV 152154Z AUTO 29013G18KT 10SM CLR 26/13 A2976 RMK AO2 SLP075 T02610133
 
KWWD - Wildwood, New Jersey
Updated: Tue, 15-Jun-2021 5:56pm EDT
Clear
Clear
 Wind from WNW
Wind: WNW 7 mph , 11 km/h
Temperature: 79°F , 26°C
Dew Point: 61°F , 16°C
Humidity: 54%
Barometer: 29.77 inHg , 1008.1 hPa
Clouds: Clear
Visibility: 10 miles , 16 km
2021/06/15 21:56 KWWD 152156Z AUTO 30006KT 10SM CLR 26/16 A2977 RMK AO2 SLP081 T02560161 $
KDOV - Dover Afb, Delaware
Updated: Tue, 15-Jun-2021 5:56pm EDT
Clear
Clear
 Wind from NW
Wind: NW 14 mph , 22 km/h, Gust: 21 mph , 33 km/h
Temperature: 79°F , 26°C
Dew Point: 55°F , 13°C
Humidity: 45%
Barometer: 29.75 inHg , 1007.5 hPa
Clouds: Clear
Visibility: 10 miles , 16 km
2021/06/15 21:56 KDOV 152156Z AUTO 31012G18KT 10SM CLR 26/13 A2975 RMK AO2 SLP078 T02620133 $
Severe Weather Map